createdAt,value
2018-04-02T00:00:28.588Z,7.30
2018-04-02T00:01:07.466Z,7.40
2018-04-02T00:02:07.555Z,7.10
2018-04-02T00:03:07.435Z,6.40
2018-04-02T00:04:07.559Z,6.00
2018-04-02T00:05:07.409Z,6.20
2018-04-02T00:06:28.465Z,6.70
2018-04-02T00:07:07.390Z,6.90
2018-04-02T00:08:07.381Z,7.00
2018-04-02T00:09:07.397Z,7.60
2018-04-02T00:10:08.119Z,6.90
2018-04-02T00:11:07.348Z,7.00
2018-04-02T00:12:28.342Z,6.40
2018-04-02T00:13:07.322Z,6.40
2018-04-02T00:14:07.312Z,6.70
2018-04-02T00:15:07.298Z,6.50
2018-04-02T00:16:10.257Z,6.40
2018-04-02T00:17:07.298Z,6.60
2018-04-02T00:18:28.269Z,6.90
2018-04-02T00:19:07.255Z,7.70
2018-04-02T00:20:07.250Z,8.00
2018-04-02T00:21:07.243Z,7.80
2018-04-02T00:22:07.217Z,7.90
2018-04-02T00:23:07.226Z,8.00
2018-04-02T00:24:28.225Z,7.40
2018-04-02T00:25:07.186Z,7.40
2018-04-02T00:26:07.169Z,6.80
2018-04-02T00:27:07.165Z,7.10
2018-04-02T00:28:07.151Z,6.90
2018-04-02T00:29:07.138Z,7.00
2018-04-02T00:30:28.151Z,7.10
2018-04-02T00:31:07.212Z,7.10
2018-04-02T00:32:07.133Z,7.30
2018-04-02T00:33:07.099Z,7.40
2018-04-02T00:34:07.131Z,7.40
2018-04-02T00:35:07.066Z,7.00
2018-04-02T00:36:28.059Z,7.10
2018-04-02T00:37:07.063Z,7.40
2018-04-02T00:38:07.042Z,7.40
2018-04-02T00:39:07.031Z,6.70
2018-04-02T00:40:07.017Z,6.80
2018-04-02T00:41:07.037Z,8.00
2018-04-02T00:42:28.991Z,7.60
2018-04-02T00:43:06.997Z,7.00
2018-04-02T00:44:06.990Z,7.10
2018-04-02T00:45:06.962Z,7.50
2018-04-02T00:46:06.946Z,8.20
2018-04-02T00:47:06.925Z,7.60
2018-04-02T00:48:27.931Z,7.00
2018-04-02T00:49:06.915Z,7.30
2018-04-02T00:50:06.927Z,7.40
2018-04-02T00:51:06.886Z,7.40
2018-04-02T00:52:06.898Z,7.20
2018-04-02T00:53:06.864Z,7.60
2018-04-02T00:54:27.858Z,7.30
2018-04-02T00:55:06.855Z,7.80
2018-04-02T00:56:06.833Z,8.10
2018-04-02T00:57:06.820Z,7.70
2018-04-02T00:58:06.813Z,8.00
2018-04-02T00:59:06.808Z,8.00
2018-04-02T01:00:27.788Z,8.30
2018-04-02T01:01:06.775Z,7.60
2018-04-02T01:02:06.785Z,8.20
2018-04-02T01:03:06.777Z,7.80
2018-04-02T01:04:06.766Z,8.00
2018-04-02T01:05:06.735Z,8.50
2018-04-02T01:06:27.784Z,8.10
2018-04-02T01:07:06.717Z,9.40
2018-04-02T01:08:06.696Z,8.70
2018-04-02T01:09:06.698Z,8.70
2018-04-02T01:10:06.682Z,8.20
2018-04-02T01:11:06.735Z,8.50
2018-04-02T01:12:27.671Z,7.70
2018-04-02T01:13:06.639Z,7.90
2018-04-02T01:14:06.661Z,7.70
2018-04-02T01:15:06.617Z,8.10
2018-04-02T01:16:06.659Z,8.40
2018-04-02T01:17:06.592Z,8.90
2018-04-02T01:18:27.585Z,8.50
2018-04-02T01:19:06.580Z,8.90
2018-04-02T01:20:06.561Z,8.50
2018-04-02T01:21:06.622Z,8.80
2018-04-02T01:22:06.549Z,7.90
2018-04-02T01:23:06.520Z,8.00
2018-04-02T01:24:27.516Z,8.60
2018-04-02T01:25:06.501Z,8.20
2018-04-02T01:26:06.666Z,8.60
2018-04-02T01:27:06.487Z,8.70
2018-04-02T01:28:06.499Z,9.30
2018-04-02T01:29:06.502Z,8.90
2018-04-02T02:02:05.622Z,4.50
2018-04-02T02:03:05.564Z,13.00
2018-04-02T02:04:05.544Z,18.30
2018-04-02T02:05:05.530Z,20.20
2018-04-02T02:06:05.522Z,18.40
2018-04-02T02:07:05.495Z,18.60
2018-04-02T02:08:05.480Z,20.80
2018-04-02T02:09:05.471Z,21.20
2018-04-02T02:10:05.484Z,22.00
2018-04-02T02:11:05.457Z,21.80
2018-04-02T02:12:05.433Z,21.90
2018-04-02T02:13:05.417Z,20.80
2018-04-02T02:14:05.415Z,19.70
2018-04-02T02:15:05.404Z,18.10
2018-04-02T02:16:05.389Z,16.50
2018-04-02T02:17:05.370Z,16.50
2018-04-02T02:18:05.355Z,16.50
2018-04-02T02:19:05.356Z,16.30
2018-04-02T02:20:05.338Z,15.60
2018-04-02T02:21:05.346Z,15.30
2018-04-02T02:22:05.309Z,14.50
2018-04-02T02:23:05.300Z,14.60
2018-04-02T02:24:05.295Z,14.30
2018-04-02T02:25:05.306Z,14.00
2018-04-02T02:26:05.257Z,14.90
2018-04-02T02:27:05.273Z,14.50
2018-04-02T02:28:05.253Z,13.90
2018-04-02T02:29:05.269Z,13.50
2018-04-02T02:30:05.225Z,13.30
2018-04-02T02:31:05.209Z,13.80
2018-04-02T02:32:05.202Z,12.60
2018-04-02T02:33:05.191Z,12.50
2018-04-02T02:34:05.201Z,12.40
2018-04-02T02:35:05.173Z,12.40
2018-04-02T02:36:05.157Z,12.30
2018-04-02T02:37:05.168Z,12.20
2018-04-02T02:38:05.138Z,11.70
2018-04-02T02:39:05.120Z,11.90
2018-04-02T02:40:05.199Z,11.60
2018-04-02T02:41:05.152Z,11.30
2018-04-02T02:42:05.087Z,11.20
2018-04-02T02:43:05.078Z,10.90
2018-04-02T02:44:05.087Z,10.50
2018-04-02T02:45:05.070Z,10.30
2018-04-02T02:46:05.049Z,10.30
2018-04-02T02:47:05.051Z,10.10
2018-04-02T02:48:05.030Z,10.40
2018-04-02T02:49:05.007Z,10.00
2018-04-02T02:50:05.018Z,9.50
2018-04-02T02:51:05.141Z,10.20
2018-04-02T02:52:04.986Z,9.80
2018-04-02T02:53:04.965Z,10.00
2018-04-02T02:54:04.955Z,9.80
2018-04-02T02:55:04.948Z,10.20
2018-04-02T02:56:04.950Z,10.00
2018-04-02T02:57:04.934Z,10.00
2018-04-02T02:58:04.903Z,10.30
2018-04-02T02:59:04.893Z,9.60
2018-04-02T03:00:04.894Z,9.80
2018-04-02T03:01:04.873Z,9.40
2018-04-02T03:02:04.870Z,10.00
2018-04-02T03:03:04.850Z,12.70
2018-04-02T03:04:04.846Z,12.60
2018-04-02T03:05:04.852Z,12.80
2018-04-02T03:06:04.827Z,12.50
2018-04-02T03:07:04.816Z,11.90
2018-04-02T03:08:04.798Z,11.60
2018-04-02T03:09:04.806Z,11.30
2018-04-02T03:10:04.819Z,11.20
2018-04-02T03:11:04.764Z,11.20
2018-04-02T03:12:04.808Z,10.50
2018-04-02T03:13:04.744Z,10.60
2018-04-02T03:14:04.741Z,10.40
2018-04-02T03:15:04.746Z,10.10
2018-04-02T03:16:04.712Z,10.10
2018-04-02T03:17:04.704Z,9.50
2018-04-02T03:18:04.707Z,9.70
2018-04-02T03:19:04.681Z,10.30
2018-04-02T03:20:04.670Z,10.00
2018-04-02T03:21:04.650Z,10.30
2018-04-02T03:22:04.640Z,11.10
2018-04-02T03:23:04.633Z,10.50
2018-04-02T03:24:04.618Z,10.40
2018-04-02T03:25:04.606Z,10.50
2018-04-02T03:26:04.609Z,11.00
2018-04-02T03:27:04.582Z,11.00
2018-04-02T03:28:04.602Z,10.00
2018-04-02T03:29:04.574Z,9.50
2018-04-02T03:30:04.570Z,9.20
2018-04-02T03:31:04.545Z,9.10
2018-04-02T03:32:04.536Z,10.90
2018-04-02T03:33:04.517Z,9.80
2018-04-02T03:34:04.512Z,11.10
2018-04-02T03:35:04.508Z,11.10
2018-04-02T03:36:04.494Z,11.20
2018-04-02T03:37:04.476Z,11.30
2018-04-02T03:38:04.469Z,10.80
2018-04-02T03:39:04.456Z,11.60
2018-04-02T03:40:04.446Z,10.80
2018-04-02T03:41:04.449Z,10.90
2018-04-02T03:42:04.416Z,11.60
2018-04-02T03:43:04.425Z,10.40
2018-04-02T03:44:04.423Z,11.40
2018-04-02T03:45:04.398Z,11.20
2018-04-02T03:46:04.377Z,10.50
2018-04-02T03:47:04.364Z,10.40
2018-04-02T03:48:04.358Z,10.60
2018-04-02T03:49:04.353Z,10.70
2018-04-02T03:50:04.341Z,10.70
2018-04-02T03:51:04.322Z,10.70
2018-04-02T03:52:04.314Z,10.00
2018-04-02T03:53:04.302Z,9.60
2018-04-02T03:54:04.287Z,9.70
2018-04-02T03:55:04.282Z,9.50
2018-04-02T03:56:04.290Z,10.10
2018-04-02T03:57:04.257Z,10.00
2018-04-02T03:58:04.243Z,9.90
2018-04-02T03:59:04.240Z,9.80
2018-04-02T04:00:04.225Z,10.30
2018-04-02T04:01:04.223Z,9.30
2018-04-02T04:02:04.195Z,9.20
2018-04-02T04:03:04.184Z,9.10
2018-04-02T04:04:04.193Z,9.30
2018-04-02T04:05:04.182Z,9.00
2018-04-02T04:06:04.166Z,8.50
2018-04-02T04:07:04.163Z,8.60
2018-04-02T04:08:04.126Z,9.20
2018-04-02T04:09:04.118Z,9.20
2018-04-02T04:10:04.128Z,9.50
2018-04-02T04:11:04.092Z,9.10
2018-04-02T04:12:04.082Z,8.30
2018-04-02T04:13:04.086Z,7.30
2018-04-02T04:14:04.073Z,7.40
2018-04-02T04:15:04.057Z,7.10
2018-04-02T04:16:04.061Z,6.80
2018-04-02T04:17:04.031Z,6.70
2018-04-02T04:18:04.044Z,7.20
2018-04-02T04:19:04.085Z,7.30
2018-04-02T04:20:03.996Z,7.20
2018-04-02T04:21:03.984Z,7.40
2018-04-02T04:22:03.969Z,7.20
2018-04-02T04:23:03.964Z,7.20
2018-04-02T04:24:03.960Z,7.50
2018-04-02T04:25:03.960Z,7.30
2018-04-02T04:26:04.016Z,7.30
2018-04-02T04:27:03.930Z,6.80
2018-04-02T04:28:03.915Z,6.60
2018-04-02T04:29:03.907Z,7.20
2018-04-02T04:30:03.915Z,8.00
2018-04-02T04:31:03.870Z,8.00
2018-04-02T04:32:03.865Z,8.00
2018-04-02T04:33:03.849Z,7.40
2018-04-02T04:34:03.938Z,8.00
2018-04-02T04:35:03.824Z,7.50
2018-04-02T04:36:03.875Z,7.40
2018-04-02T04:37:03.807Z,7.50
2018-04-02T04:38:03.802Z,7.50
2018-04-02T04:39:03.778Z,7.70
2018-04-02T04:40:03.782Z,7.00
2018-04-02T04:41:03.773Z,6.50
2018-04-02T04:42:03.772Z,6.90
2018-04-02T04:43:03.749Z,7.70
2018-04-02T04:44:03.726Z,7.40
2018-04-02T04:45:03.722Z,7.30
2018-04-02T04:46:03.700Z,7.30
2018-04-02T04:47:03.699Z,6.80
2018-04-02T04:48:03.714Z,7.00
2018-04-02T04:49:03.674Z,6.30
2018-04-02T04:50:03.662Z,6.20
2018-04-02T04:51:03.651Z,6.20
2018-04-02T04:52:03.643Z,6.20
2018-04-02T04:53:03.650Z,6.80
2018-04-02T04:54:03.627Z,7.00
2018-04-02T04:55:03.621Z,6.80
2018-04-02T04:56:03.587Z,6.20
2018-04-02T04:57:03.586Z,6.10
2018-04-02T04:58:03.576Z,6.10
2018-04-02T04:59:03.572Z,6.20
2018-04-02T05:00:03.553Z,5.60
2018-04-02T05:01:03.544Z,5.60
2018-04-02T05:02:03.539Z,6.20
2018-04-02T05:03:03.535Z,6.20
2018-04-02T05:04:03.512Z,6.00
2018-04-02T05:05:03.533Z,5.90
2018-04-02T05:06:03.503Z,6.10
2018-04-02T05:07:03.478Z,6.40
2018-04-02T05:08:03.474Z,6.60
2018-04-02T05:09:03.451Z,5.90
2018-04-02T05:10:03.453Z,5.40
2018-04-02T05:11:03.423Z,5.80
2018-04-02T05:12:03.422Z,5.60
2018-04-02T05:13:03.405Z,5.80
2018-04-02T05:14:03.397Z,5.40
2018-04-02T05:15:03.455Z,5.00
2018-04-02T05:16:03.491Z,5.00
2018-04-02T05:17:03.353Z,5.10
2018-04-02T05:18:03.354Z,5.00
2018-04-02T05:19:03.350Z,4.70
2018-04-02T05:20:03.363Z,4.70
2018-04-02T05:21:03.328Z,4.40
2018-04-02T05:22:03.316Z,4.80
2018-04-02T05:23:03.300Z,4.40
2018-04-02T05:24:03.282Z,4.40
2018-04-02T05:25:03.271Z,4.80
2018-04-02T05:26:03.264Z,4.60
2018-04-02T05:27:03.260Z,4.70
2018-04-02T05:28:03.244Z,5.00
2018-04-02T05:29:03.232Z,5.00
2018-04-02T05:30:03.255Z,5.20
2018-04-02T05:31:03.211Z,5.10
2018-04-02T05:32:03.193Z,5.20
2018-04-02T05:33:03.236Z,4.80
2018-04-02T05:34:03.199Z,5.30
2018-04-02T05:35:03.178Z,4.80
2018-04-02T05:36:03.194Z,4.90
2018-04-02T05:37:03.235Z,4.60
2018-04-02T05:38:03.288Z,4.70
2018-04-02T05:39:03.125Z,4.70
2018-04-02T05:40:03.123Z,4.50
2018-04-02T05:41:03.110Z,4.70
2018-04-02T05:42:03.086Z,4.70
2018-04-02T05:43:03.131Z,4.80
2018-04-02T05:44:03.188Z,4.50
2018-04-02T05:45:03.724Z,4.50
2018-04-02T05:46:03.056Z,4.80
2018-04-02T05:47:03.229Z,4.30
2018-04-02T05:48:03.077Z,4.30
2018-04-02T05:49:03.018Z,4.60
2018-04-02T05:50:03.045Z,4.70
2018-04-02T05:51:03.141Z,4.70
2018-04-02T05:52:02.990Z,4.50
2018-04-02T05:53:02.991Z,4.50
2018-04-02T05:54:02.990Z,5.00
2018-04-02T05:55:02.956Z,3.80
2018-04-02T05:56:03.011Z,4.50
2018-04-02T05:57:02.958Z,5.40
2018-04-02T05:58:02.930Z,3.90
2018-04-02T05:59:02.926Z,3.70
2018-04-02T06:00:02.911Z,3.50
2018-04-02T06:01:02.899Z,3.70
2018-04-02T06:02:02.897Z,3.50
2018-04-02T06:03:02.876Z,3.10
2018-04-02T06:04:02.864Z,3.40
2018-04-02T06:05:02.906Z,3.30
2018-04-02T06:06:02.852Z,3.40
2018-04-02T06:07:02.849Z,3.20
2018-04-02T06:08:02.833Z,3.20
2018-04-02T06:09:02.827Z,3.40
2018-04-02T06:10:02.824Z,3.40
2018-04-02T06:11:02.819Z,3.30
2018-04-02T06:12:02.820Z,3.10
2018-04-02T06:13:02.791Z,3.60
2018-04-02T06:14:02.788Z,3.00
2018-04-02T06:15:02.805Z,3.10
2018-04-02T06:16:02.793Z,3.20
2018-04-02T06:17:02.764Z,3.10
2018-04-02T06:18:02.774Z,3.10
2018-04-02T06:19:02.748Z,3.10
2018-04-02T06:20:03.744Z,3.20
2018-04-02T06:21:03.647Z,3.00
2018-04-02T06:22:02.741Z,2.80
2018-04-02T06:23:02.716Z,2.90
2018-04-02T06:24:02.741Z,3.00
2018-04-02T06:25:02.716Z,2.90
2018-04-02T06:26:02.740Z,2.90
2018-04-02T06:27:02.729Z,2.70
2018-04-02T06:28:02.659Z,3.20
2018-04-02T06:29:02.785Z,2.70
2018-04-02T06:30:02.652Z,2.60
2018-04-02T06:31:02.633Z,2.70
2018-04-02T06:32:02.627Z,2.80
2018-04-02T06:33:03.554Z,3.00
2018-04-02T06:34:02.621Z,2.60
2018-04-02T06:35:02.679Z,2.60
2018-04-02T06:36:02.603Z,2.60
2018-04-02T06:37:02.616Z,2.60
2018-04-02T06:38:02.626Z,2.50
2018-04-02T06:39:02.574Z,2.70
2018-04-02T06:40:02.573Z,2.30
2018-04-02T06:41:02.544Z,2.30
2018-04-02T06:42:02.545Z,2.20
2018-04-02T06:43:02.583Z,2.40
2018-04-02T06:44:02.539Z,2.30
2018-04-02T06:45:02.534Z,2.40
2018-04-02T06:46:02.519Z,2.50
2018-04-02T06:47:02.515Z,2.30
2018-04-02T06:48:02.497Z,2.00
2018-04-02T06:49:02.513Z,2.40
2018-04-02T06:50:02.504Z,2.30
2018-04-02T06:51:02.460Z,2.40
2018-04-02T06:52:02.477Z,2.30
2018-04-02T06:53:02.455Z,2.40
2018-04-02T06:54:02.451Z,2.40
2018-04-02T06:55:02.442Z,2.30
2018-04-02T06:56:02.450Z,2.40
2018-04-02T06:57:02.431Z,2.10
2018-04-02T06:58:02.425Z,2.10
2018-04-02T06:59:02.416Z,2.10
2018-04-02T07:00:02.429Z,2.20
2018-04-02T07:01:02.390Z,1.90
2018-04-02T07:02:02.407Z,2.00
2018-04-02T07:03:02.394Z,2.00
2018-04-02T07:04:02.404Z,2.00
2018-04-02T07:05:02.375Z,1.90
2018-04-02T07:06:02.363Z,2.20
2018-04-02T07:07:02.370Z,1.90
2018-04-02T07:08:02.377Z,1.80
2018-04-02T07:09:02.389Z,1.90
2018-04-02T07:10:02.344Z,1.90
2018-04-02T07:11:02.380Z,1.70
2018-04-02T07:12:02.330Z,1.80
2018-04-02T07:13:02.323Z,1.70
2018-04-02T07:14:02.326Z,1.70
2018-04-02T07:15:02.335Z,1.70
2018-04-02T07:16:02.336Z,1.80
2018-04-02T07:17:02.306Z,1.80
2018-04-02T07:18:02.307Z,1.60
2018-04-02T07:19:02.313Z,1.70
2018-04-02T07:20:02.297Z,1.70
2018-04-02T07:21:02.298Z,1.70
2018-04-02T07:22:02.292Z,1.60
2018-04-02T07:23:02.347Z,1.80
2018-04-02T07:24:02.283Z,1.90
2018-04-02T07:25:02.305Z,1.70
2018-04-02T07:26:02.275Z,1.70
2018-04-02T07:27:02.281Z,1.90
2018-04-02T07:28:02.280Z,2.00
2018-04-02T07:29:02.295Z,1.60
2018-04-02T07:30:02.283Z,1.90
2018-04-02T07:31:02.286Z,1.80
2018-04-02T07:32:02.307Z,1.80
2018-04-02T07:33:02.282Z,1.80
2018-04-02T07:34:02.303Z,1.90
2018-04-02T07:35:02.311Z,1.90
2018-04-02T07:36:02.364Z,1.70
2018-04-02T07:37:02.410Z,1.80
2018-04-02T07:38:02.660Z,1.70
2018-04-02T07:39:04.129Z,1.60
2018-04-02T07:40:03.066Z,1.80
2018-04-02T07:41:02.330Z,1.90
2018-04-02T07:42:02.316Z,1.80
2018-04-02T07:43:02.321Z,1.70
2018-04-02T07:44:02.313Z,1.90
2018-04-02T07:45:02.326Z,1.80
2018-04-02T07:46:02.333Z,1.70
2018-04-02T07:47:02.372Z,1.70
2018-04-02T07:48:02.380Z,1.80
2018-04-02T07:49:02.420Z,1.70
2018-04-02T07:50:02.471Z,1.80
2018-04-02T07:51:02.373Z,1.70
2018-04-02T07:52:02.385Z,1.70
2018-04-02T07:53:02.409Z,1.90
2018-04-02T07:54:02.442Z,1.90
2018-04-02T07:55:02.428Z,1.80
2018-04-02T07:56:02.429Z,1.60
2018-04-02T07:57:03.098Z,1.80
2018-04-02T07:58:02.439Z,1.70
2018-04-02T07:59:02.445Z,1.80
2018-04-02T08:00:02.459Z,1.80
2018-04-02T08:01:02.438Z,1.70
2018-04-02T08:02:02.489Z,1.70
2018-04-02T08:03:02.549Z,1.80
2018-04-02T08:04:02.495Z,1.90
2018-04-02T08:05:02.449Z,1.80
2018-04-02T08:06:03.084Z,1.80
2018-04-02T08:07:02.523Z,1.80
2018-04-02T08:08:02.467Z,2.00
2018-04-02T08:09:02.490Z,2.00
2018-04-02T08:10:02.530Z,1.80
2018-04-02T08:11:02.489Z,1.80
2018-04-02T08:12:02.539Z,2.00
2018-04-02T08:13:02.480Z,1.90
2018-04-02T08:14:02.498Z,1.80
2018-04-02T08:15:02.507Z,1.80
2018-04-02T08:16:02.495Z,2.30
2018-04-02T08:17:02.530Z,2.00
2018-04-02T08:18:02.516Z,1.80
2018-04-02T08:19:02.501Z,2.00
2018-04-02T08:20:02.603Z,2.00
2018-04-02T08:21:02.596Z,1.90
2018-04-02T08:22:02.582Z,2.00
2018-04-02T08:23:02.595Z,1.80
2018-04-02T08:24:02.593Z,1.90
2018-04-02T08:25:02.544Z,1.80
2018-04-02T08:26:02.626Z,2.20
2018-04-02T08:27:02.625Z,2.10
2018-04-02T08:28:02.633Z,2.00
2018-04-02T08:29:02.648Z,2.10
2018-04-02T08:30:02.677Z,2.10
2018-04-02T08:31:02.700Z,1.90
2018-04-02T08:32:02.639Z,1.90
2018-04-02T08:33:02.641Z,1.90
2018-04-02T08:34:02.676Z,2.00
2018-04-02T08:35:02.722Z,2.10
2018-04-02T08:36:02.685Z,1.90
2018-04-02T08:37:02.693Z,1.80
2018-04-02T08:38:02.640Z,1.90
2018-04-02T08:39:02.754Z,2.00
2018-04-02T08:40:02.678Z,2.10
2018-04-02T08:41:02.657Z,2.10
2018-04-02T08:42:02.729Z,1.90
2018-04-02T08:43:02.641Z,1.90
2018-04-02T08:44:02.633Z,2.00
2018-04-02T08:45:02.715Z,1.90
2018-04-02T08:46:02.653Z,2.10
2018-04-02T08:47:03.603Z,2.40
2018-04-02T08:48:02.675Z,2.30
2018-04-02T08:49:02.683Z,2.10
2018-04-02T08:50:02.665Z,2.30
2018-04-02T08:51:03.165Z,2.50
2018-04-02T08:52:02.657Z,2.00
2018-04-02T08:53:02.671Z,2.10
2018-04-02T08:54:02.636Z,2.30
2018-04-02T08:55:02.647Z,2.20
2018-04-02T08:56:02.627Z,2.10
2018-04-02T08:57:02.629Z,2.10
2018-04-02T08:58:02.639Z,2.20
2018-04-02T08:59:02.632Z,2.40
2018-04-02T09:00:02.636Z,2.20
2018-04-02T09:01:02.663Z,2.20
2018-04-02T09:02:02.644Z,2.50
2018-04-02T09:03:02.638Z,2.40
2018-04-02T09:04:02.637Z,2.40
2018-04-02T09:05:02.648Z,2.40
2018-04-02T09:06:02.679Z,2.10
2018-04-02T09:07:02.636Z,2.40
2018-04-02T09:08:02.647Z,2.20
2018-04-02T09:09:02.640Z,2.20
2018-04-02T09:10:02.657Z,2.30
2018-04-02T09:11:02.643Z,2.20
2018-04-02T09:12:02.633Z,2.20
2018-04-02T09:13:02.649Z,2.30
2018-04-02T09:14:02.639Z,2.20
2018-04-02T09:15:02.732Z,2.10
2018-04-02T09:16:02.653Z,2.30
2018-04-02T09:17:02.654Z,2.30
2018-04-02T09:18:02.651Z,2.30
2018-04-02T09:19:02.638Z,2.10
2018-04-02T09:20:02.658Z,2.30
2018-04-02T09:21:02.656Z,2.30
2018-04-02T09:22:02.700Z,2.20
2018-04-02T09:23:02.666Z,3.00
2018-04-02T09:24:03.374Z,2.30
2018-04-02T09:25:02.710Z,2.10
2018-04-02T09:26:02.726Z,2.10
2018-04-02T09:27:02.716Z,2.40
2018-04-02T09:28:02.798Z,2.00
2018-04-02T09:29:02.719Z,2.10
2018-04-02T09:30:02.729Z,2.10
2018-04-02T09:31:02.820Z,2.20
2018-04-02T09:32:02.836Z,1.90
2018-04-02T09:33:02.745Z,2.10
2018-04-02T09:34:02.774Z,2.00
2018-04-02T09:35:02.775Z,1.90
2018-04-02T09:36:02.779Z,1.90
2018-04-02T09:37:02.800Z,1.80
2018-04-02T09:38:02.813Z,2.20
2018-04-02T09:39:02.824Z,2.00
2018-04-02T09:40:02.843Z,1.80
2018-04-02T09:41:02.847Z,1.80
2018-04-02T09:42:02.878Z,1.70
2018-04-02T09:43:02.874Z,2.00
2018-04-02T09:44:02.894Z,1.90
2018-04-02T09:45:02.926Z,1.90
2018-04-02T09:46:02.913Z,1.80
2018-04-02T09:47:02.935Z,2.00
2018-04-02T09:48:02.946Z,2.00
2018-04-02T09:49:02.953Z,1.90
2018-04-02T09:50:02.989Z,1.80
2018-04-02T09:51:02.982Z,1.80
2018-04-02T09:52:02.990Z,1.80
2018-04-02T09:53:03.004Z,1.70
2018-04-02T09:54:03.041Z,1.80
2018-04-02T09:55:03.028Z,1.70
2018-04-02T09:56:03.034Z,1.90
2018-04-02T09:57:03.080Z,1.90
2018-04-02T09:58:03.075Z,1.70
2018-04-02T09:59:03.094Z,1.70
2018-04-02T10:00:03.102Z,1.70
2018-04-02T20:56:05.602Z,1.60
2018-04-02T20:57:05.589Z,1.30
2018-04-02T20:58:05.567Z,1.20
2018-04-02T20:59:05.563Z,1.60
2018-04-02T21:00:05.567Z,1.10
2018-04-02T21:01:05.560Z,1.10
2018-04-02T21:02:05.555Z,1.30
2018-04-02T21:03:05.543Z,1.10
2018-04-02T21:04:05.549Z,1.40
2018-04-02T21:05:05.548Z,1.30
2018-04-02T21:06:05.537Z,1.30
2018-04-02T21:07:05.528Z,1.40
2018-04-02T21:08:05.523Z,1.40
2018-04-02T21:09:05.522Z,1.20
2018-04-02T21:10:05.513Z,1.50
2018-04-02T21:11:05.510Z,1.20
2018-04-02T21:12:05.505Z,1.30
2018-04-02T21:13:05.504Z,1.60
2018-04-02T21:14:05.500Z,1.30
2018-04-02T21:15:05.495Z,1.40
2018-04-02T21:16:05.489Z,1.20
2018-04-02T21:17:05.483Z,1.30
2018-04-02T21:18:05.489Z,1.50
2018-04-02T21:19:05.516Z,1.20
2018-04-02T21:20:05.509Z,1.30
2018-04-02T21:21:05.471Z,1.40
2018-04-02T21:22:05.470Z,1.30
2018-04-02T21:23:05.459Z,1.20
2018-04-02T21:24:05.498Z,1.20
2018-04-02T21:25:05.491Z,1.40
2018-04-02T21:26:05.490Z,1.20
2018-04-02T21:27:05.490Z,1.10
2018-04-02T21:28:05.445Z,1.20
2018-04-02T21:29:05.432Z,1.30
2018-04-02T21:30:05.428Z,1.30
2018-04-02T21:31:05.428Z,1.20
2018-04-02T21:32:05.446Z,1.00
2018-04-02T21:33:05.423Z,1.20
2018-04-02T21:34:05.412Z,1.40
2018-04-02T21:35:05.406Z,1.10
2018-04-02T21:36:05.402Z,1.10
2018-04-02T21:37:05.399Z,1.30
2018-04-02T21:38:05.391Z,1.20
2018-04-02T21:39:05.390Z,1.30
2018-04-02T21:40:05.390Z,1.20
2018-04-02T21:41:05.377Z,1.30
2018-04-02T21:42:05.380Z,1.20
2018-04-02T21:43:05.367Z,1.50
2018-04-02T21:44:05.372Z,1.40
2018-04-02T21:45:05.359Z,1.20
2018-04-02T21:46:05.365Z,1.30
2018-04-02T21:47:05.392Z,1.70
2018-04-02T21:48:05.348Z,1.30
2018-04-02T21:49:05.364Z,1.30
2018-04-02T21:50:05.342Z,1.20
2018-04-02T21:51:05.351Z,1.20
2018-04-02T21:52:05.327Z,1.40
2018-04-02T21:53:05.322Z,1.20
2018-04-02T21:54:05.326Z,1.30
2018-04-02T21:55:05.323Z,1.20
2018-04-02T21:56:05.325Z,1.20
2018-04-02T21:57:05.315Z,1.30
2018-04-02T21:58:05.314Z,1.20
2018-04-02T21:59:05.304Z,1.40
2018-04-02T22:00:05.299Z,1.50
2018-04-02T22:01:05.336Z,1.40
2018-04-02T22:02:05.287Z,1.40
2018-04-02T22:03:05.364Z,1.40
2018-04-02T22:04:05.306Z,1.40
2018-04-02T22:05:05.271Z,1.40
2018-04-02T22:06:05.268Z,1.30
2018-04-02T22:07:05.274Z,1.30
2018-04-02T22:08:05.264Z,1.50
2018-04-02T22:09:05.269Z,1.50
2018-04-02T22:10:05.254Z,1.60
2018-04-02T22:11:05.240Z,1.40
2018-04-02T22:12:05.296Z,1.40
2018-04-02T22:13:05.242Z,1.40
2018-04-02T22:14:05.291Z,1.40
2018-04-02T22:15:05.261Z,1.40
2018-04-02T22:16:05.345Z,1.30
2018-04-02T22:17:05.220Z,1.20
2018-04-02T22:18:05.238Z,1.30
2018-04-02T22:19:05.212Z,1.30
2018-04-02T22:20:05.256Z,1.40
2018-04-02T22:21:05.203Z,1.40
2018-04-02T22:22:05.192Z,1.50
2018-04-02T22:23:05.192Z,1.30
2018-04-02T22:24:05.283Z,1.20
2018-04-02T22:25:05.190Z,1.50
2018-04-02T22:26:05.224Z,1.50
2018-04-02T22:27:05.173Z,1.20
2018-04-02T22:28:05.170Z,1.50
2018-04-02T22:29:05.168Z,1.40
2018-04-02T22:30:05.165Z,1.60
2018-04-02T22:31:05.197Z,1.50
2018-04-02T22:32:05.180Z,1.40
2018-04-02T22:33:05.158Z,1.20
2018-04-02T22:34:05.171Z,1.60
2018-04-02T22:35:05.127Z,1.70
2018-04-02T22:36:05.122Z,1.70
2018-04-02T22:37:05.132Z,1.70
2018-04-02T22:38:05.116Z,1.60
2018-04-02T22:39:05.117Z,1.60
2018-04-02T22:40:05.112Z,1.70
2018-04-02T22:41:05.110Z,1.70
2018-04-02T22:42:05.139Z,1.50
2018-04-02T22:43:05.193Z,1.70
2018-04-02T22:44:05.179Z,1.70
2018-04-02T22:45:05.098Z,1.70
2018-04-02T22:46:05.230Z,1.70
2018-04-02T22:47:05.081Z,1.60
2018-04-02T22:48:05.079Z,1.60
2018-04-02T22:49:05.069Z,1.30
2018-04-02T22:50:05.074Z,1.40
2018-04-02T22:51:05.062Z,1.40
2018-04-02T22:52:05.064Z,1.30
2018-04-02T22:53:05.058Z,1.40
2018-04-02T22:54:05.045Z,1.40
2018-04-02T22:55:05.045Z,1.40
2018-04-02T22:56:05.065Z,1.40
2018-04-02T22:57:05.030Z,1.50
2018-04-02T22:58:05.031Z,1.60
2018-04-02T22:59:05.029Z,1.60
2018-04-02T23:00:05.013Z,1.90
2018-04-02T23:01:05.018Z,1.60
2018-04-02T23:02:05.011Z,1.50
2018-04-02T23:03:05.002Z,1.80
2018-04-02T23:04:04.997Z,1.40
2018-04-02T23:05:05.080Z,1.40
2018-04-02T23:06:05.070Z,1.40
2018-04-02T23:07:04.982Z,1.40
2018-04-02T23:08:04.989Z,1.70
2018-04-02T23:09:04.970Z,1.30
2018-04-02T23:10:04.973Z,1.30
2018-04-02T23:11:04.961Z,1.30
2018-04-02T23:12:04.965Z,1.30
2018-04-02T23:13:04.956Z,1.40
2018-04-02T23:14:04.952Z,1.60
2018-04-02T23:15:04.951Z,1.40
2018-04-02T23:16:05.072Z,1.30
2018-04-02T23:17:04.939Z,1.50
2018-04-02T23:18:04.933Z,1.50
2018-04-02T23:19:04.938Z,1.30
2018-04-02T23:20:04.917Z,1.70
2018-04-02T23:21:04.916Z,1.20
2018-04-02T23:22:04.905Z,1.50
2018-04-02T23:23:04.907Z,1.50
2018-04-02T23:24:04.907Z,1.30
2018-04-02T23:25:04.901Z,1.30
2018-04-02T23:26:04.930Z,1.40
2018-04-02T23:27:04.894Z,1.10
2018-04-02T23:28:04.892Z,1.50
2018-04-02T23:29:04.898Z,1.50
2018-04-02T23:30:04.875Z,1.40
2018-04-02T23:31:04.869Z,1.60
2018-04-02T23:32:04.896Z,1.60
2018-04-02T23:33:04.905Z,1.50
2018-04-02T23:34:04.908Z,1.40
2018-04-02T23:35:04.897Z,1.40
2018-04-02T23:36:04.954Z,1.60
2018-04-02T23:37:04.904Z,1.60
2018-04-02T23:38:04.944Z,1.40
2018-04-02T23:39:04.929Z,1.50
2018-04-02T23:40:04.855Z,1.20
2018-04-02T23:41:04.862Z,1.60
2018-04-02T23:42:04.867Z,1.70
2018-04-02T23:43:04.868Z,1.60
2018-04-02T23:44:04.868Z,1.60
2018-04-02T23:45:04.880Z,1.70
2018-04-02T23:46:04.945Z,1.70
2018-04-02T23:47:04.808Z,1.70
2018-04-02T23:48:04.839Z,1.90
2018-04-02T23:49:04.844Z,1.60
2018-04-02T23:50:04.844Z,1.80
2018-04-02T23:51:04.794Z,1.70
2018-04-02T23:52:04.820Z,1.70
2018-04-02T23:53:04.865Z,1.90
2018-04-02T23:54:04.834Z,2.00
2018-04-02T23:55:04.875Z,1.90
2018-04-02T23:56:04.864Z,1.80
2018-04-02T23:57:04.872Z,1.70
2018-04-02T23:58:04.879Z,2.10
2018-04-02T23:59:04.907Z,1.90
